sensor_id;sensor_type;location;lat;lon;timestamp;temperature;humidity
4399;DHT22;2213;49.720;7.296;2023-01-16T00:00:55;4.60;99.90
4399;DHT22;2213;49.720;7.296;2023-01-16T00:03:24;4.70;99.90
4399;DHT22;2213;49.720;7.296;2023-01-16T00:05:55;4.80;99.90
4399;DHT22;2213;49.720;7.296;2023-01-16T00:08:25;4.70;99.90
4399;DHT22;2213;49.720;7.296;2023-01-16T00:10:55;4.70;99.90
4399;DHT22;2213;49.720;7.296;2023-01-16T00:13:26;4.70;99.90
4399;DHT22;2213;49.720;7.296;2023-01-16T00:15:57;4.70;99.90
4399;DHT22;2213;49.720;7.296;2023-01-16T00:18:26;4.50;99.90
4399;DHT22;2213;49.720;7.296;2023-01-16T00:20:56;4.50;99.90
4399;DHT22;2213;49.720;7.296;2023-01-16T00:23:25;4.40;99.90
4399;DHT22;2213;49.720;7.296;2023-01-16T00:25:55;4.50;99.90
4399;DHT22;2213;49.720;7.296;2023-01-16T00:28:25;4.50;99.90
4399;DHT22;2213;49.720;7.296;2023-01-16T00:30:56;4.50;99.90
4399;DHT22;2213;49.720;7.296;2023-01-16T00:33:25;4.50;99.90
4399;DHT22;2213;49.720;7.296;2023-01-16T00:35:55;4.50;99.90
4399;DHT22;2213;49.720;7.296;2023-01-16T00:38:25;4.40;99.90
4399;DHT22;2213;49.720;7.296;2023-01-16T00:40:54;4.50;99.90
4399;DHT22;2213;49.720;7.296;2023-01-16T00:43:24;4.40;99.90
4399;DHT22;2213;49.720;7.296;2023-01-16T00:45:53;4.50;99.90
4399;DHT22;2213;49.720;7.296;2023-01-16T00:48:26;4.40;99.90
4399;DHT22;2213;49.720;7.296;2023-01-16T00:50:56;4.40;99.90
4399;DHT22;2213;49.720;7.296;2023-01-16T00:53:25;4.40;99.90
4399;DHT22;2213;49.720;7.296;2023-01-16T00:55:56;4.50;99.90
4399;DHT22;2213;49.720;7.296;2023-01-16T00:58:27;4.50;99.90
4399;DHT22;2213;49.720;7.296;2023-01-16T01:00:57;4.40;99.90
4399;DHT22;2213;49.720;7.296;2023-01-16T01:03:29;4.40;99.90
4399;DHT22;2213;49.720;7.296;2023-01-16T01:05:58;4.50;99.90
4399;DHT22;2213;49.720;7.296;2023-01-16T01:08:28;4.50;99.90
4399;DHT22;2213;49.720;7.296;2023-01-16T01:11:06;4.50;99.90
4399;DHT22;2213;49.720;7.296;2023-01-16T01:13:39;4.50;99.90
4399;DHT22;2213;49.720;7.296;2023-01-16T01:16:10;4.60;99.90
4399;DHT22;2213;49.720;7.296;2023-01-16T01:18:41;4.60;99.90
4399;DHT22;2213;49.720;7.296;2023-01-16T01:21:12;4.70;99.90
4399;DHT22;2213;49.720;7.296;2023-01-16T01:23:42;4.60;99.90
4399;DHT22;2213;49.720;7.296;2023-01-16T01:26:14;4.70;99.90
4399;DHT22;2213;49.720;7.296;2023-01-16T01:28:45;4.70;99.90
4399;DHT22;2213;49.720;7.296;2023-01-16T01:31:15;4.70;99.90
4399;DHT22;2213;49.720;7.296;2023-01-16T01:33:46;4.80;99.90
4399;DHT22;2213;49.720;7.296;2023-01-16T01:36:16;4.70;99.90
4399;DHT22;2213;49.720;7.296;2023-01-16T01:38:47;4.70;99.90
4399;DHT22;2213;49.720;7.296;2023-01-16T01:41:18;4.80;99.90
4399;DHT22;2213;49.720;7.296;2023-01-16T01:43:49;4.80;99.90
4399;DHT22;2213;49.720;7.296;2023-01-16T01:46:22;4.70;99.90
4399;DHT22;2213;49.720;7.296;2023-01-16T01:48:59;4.70;99.90
4399;DHT22;2213;49.720;7.296;2023-01-16T01:51:36;4.70;99.90
4399;DHT22;2213;49.720;7.296;2023-01-16T01:54:10;4.80;99.90
4399;DHT22;2213;49.720;7.296;2023-01-16T01:56:46;4.70;99.90
4399;DHT22;2213;49.720;7.296;2023-01-16T01:59:23;4.70;99.90
4399;DHT22;2213;49.720;7.296;2023-01-16T02:01:55;4.80;99.90
4399;DHT22;2213;49.720;7.296;2023-01-16T02:04:30;4.80;99.90
4399;DHT22;2213;49.720;7.296;2023-01-16T02:07:15;4.80;99.90
4399;DHT22;2213;49.720;7.296;2023-01-16T02:09:46;4.80;99.90
4399;DHT22;2213;49.720;7.296;2023-01-16T02:12:17;4.80;99.90
4399;DHT22;2213;49.720;7.296;2023-01-16T02:14:47;4.70;99.90
4399;DHT22;2213;49.720;7.296;2023-01-16T02:17:19;4.80;99.90
4399;DHT22;2213;49.720;7.296;2023-01-16T02:20:24;4.80;99.90
4399;DHT22;2213;49.720;7.296;2023-01-16T02:26:37;4.80;99.90
4399;DHT22;2213;49.720;7.296;2023-01-16T02:29:48;4.70;99.90
4399;DHT22;2213;49.720;7.296;2023-01-16T02:32:58;4.60;99.90
4399;DHT22;2213;49.720;7.296;2023-01-16T02:35:57;4.60;99.90
4399;DHT22;2213;49.720;7.296;2023-01-16T02:38:39;4.70;99.90
4399;DHT22;2213;49.720;7.296;2023-01-16T02:41:22;4.60;99.90
4399;DHT22;2213;49.720;7.296;2023-01-16T02:44:15;4.70;99.90
4399;DHT22;2213;49.720;7.296;2023-01-16T02:47:10;4.70;99.90
4399;DHT22;2213;49.720;7.296;2023-01-16T02:49:49;4.70;99.90
4399;DHT22;2213;49.720;7.296;2023-01-16T02:52:35;4.70;99.90
4399;DHT22;2213;49.720;7.296;2023-01-16T02:55:13;4.80;99.90
4399;DHT22;2213;49.720;7.296;2023-01-16T02:57:53;4.70;99.90
4399;DHT22;2213;49.720;7.296;2023-01-16T03:00:29;4.80;99.90
4399;DHT22;2213;49.720;7.296;2023-01-16T03:02:59;4.70;99.90
4399;DHT22;2213;49.720;7.296;2023-01-16T03:05:36;4.80;99.90
4399;DHT22;2213;49.720;7.296;2023-01-16T03:08:27;4.80;99.90
4399;DHT22;2213;49.720;7.296;2023-01-16T03:11:14;4.80;99.90
4399;DHT22;2213;49.720;7.296;2023-01-16T03:14:04;4.80;99.90
4399;DHT22;2213;49.720;7.296;2023-01-16T03:17:02;4.80;99.90
4399;DHT22;2213;49.720;7.296;2023-01-16T03:19:53;4.70;99.90
4399;DHT22;2213;49.720;7.296;2023-01-16T03:22:39;4.70;99.90
4399;DHT22;2213;49.720;7.296;2023-01-16T03:25:21;4.70;99.90
4399;DHT22;2213;49.720;7.296;2023-01-16T03:28:06;4.70;99.90
4399;DHT22;2213;49.720;7.296;2023-01-16T03:30:48;4.70;99.90
4399;DHT22;2213;49.720;7.296;2023-01-16T03:33:29;4.70;99.90
4399;DHT22;2213;49.720;7.296;2023-01-16T03:36:13;4.80;99.90
4399;DHT22;2213;49.720;7.296;2023-01-16T03:38:51;4.80;99.90
4399;DHT22;2213;49.720;7.296;2023-01-16T03:41:25;4.70;99.90
4399;DHT22;2213;49.720;7.296;2023-01-16T03:44:02;4.80;99.90
4399;DHT22;2213;49.720;7.296;2023-01-16T03:46:40;4.90;99.90
4399;DHT22;2213;49.720;7.296;2023-01-16T03:49:18;4.90;99.90
4399;DHT22;2213;49.720;7.296;2023-01-16T03:51:52;4.80;99.90
4399;DHT22;2213;49.720;7.296;2023-01-16T03:54:34;4.70;99.90
4399;DHT22;2213;49.720;7.296;2023-01-16T03:57:13;4.80;99.90
4399;DHT22;2213;49.720;7.296;2023-01-16T03:59:48;4.80;99.90
4399;DHT22;2213;49.720;7.296;2023-01-16T04:02:25;4.80;99.90
4399;DHT22;2213;49.720;7.296;2023-01-16T04:05:03;4.80;99.90
4399;DHT22;2213;49.720;7.296;2023-01-16T04:07:41;4.90;99.90
4399;DHT22;2213;49.720;7.296;2023-01-16T04:10:19;4.80;99.90
4399;DHT22;2213;49.720;7.296;2023-01-16T04:12:54;4.80;99.90
4399;DHT22;2213;49.720;7.296;2023-01-16T04:15:27;4.80;99.90
4399;DHT22;2213;49.720;7.296;2023-01-16T04:18:00;4.80;99.90
4399;DHT22;2213;49.720;7.296;2023-01-16T04:20:30;4.80;99.90
4399;DHT22;2213;49.720;7.296;2023-01-16T04:23:01;4.80;99.90
4399;DHT22;2213;49.720;7.296;2023-01-16T04:25:32;4.80;99.90
4399;DHT22;2213;49.720;7.296;2023-01-16T04:28:03;4.80;99.90
4399;DHT22;2213;49.720;7.296;2023-01-16T04:30:32;4.70;99.90
4399;DHT22;2213;49.720;7.296;2023-01-16T04:33:03;4.80;99.90
4399;DHT22;2213;49.720;7.296;2023-01-16T04:35:35;4.80;99.90
4399;DHT22;2213;49.720;7.296;2023-01-16T04:38:04;4.80;99.90
4399;DHT22;2213;49.720;7.296;2023-01-16T04:40:36;4.70;99.90
4399;DHT22;2213;49.720;7.296;2023-01-16T04:43:07;4.80;99.90
4399;DHT22;2213;49.720;7.296;2023-01-16T04:45:36;4.70;99.90
4399;DHT22;2213;49.720;7.296;2023-01-16T04:48:07;4.70;99.90
4399;DHT22;2213;49.720;7.296;2023-01-16T04:50:38;4.80;99.90
4399;DHT22;2213;49.720;7.296;2023-01-16T04:53:08;4.70;99.90
4399;DHT22;2213;49.720;7.296;2023-01-16T04:55:39;4.70;99.90
4399;DHT22;2213;49.720;7.296;2023-01-16T04:58:09;4.80;99.90
4399;DHT22;2213;49.720;7.296;2023-01-16T05:00:38;4.80;99.90
4399;DHT22;2213;49.720;7.296;2023-01-16T05:03:08;4.70;99.90
4399;DHT22;2213;49.720;7.296;2023-01-16T05:05:38;4.80;99.90
4399;DHT22;2213;49.720;7.296;2023-01-16T05:08:09;4.70;99.90
4399;DHT22;2213;49.720;7.296;2023-01-16T05:10:46;4.70;99.90
4399;DHT22;2213;49.720;7.296;2023-01-16T05:13:15;4.70;99.90
4399;DHT22;2213;49.720;7.296;2023-01-16T05:15:45;4.60;99.90
4399;DHT22;2213;49.720;7.296;2023-01-16T05:18:16;4.70;99.90
4399;DHT22;2213;49.720;7.296;2023-01-16T05:20:46;4.70;99.90
4399;DHT22;2213;49.720;7.296;2023-01-16T05:23:15;4.70;99.90
4399;DHT22;2213;49.720;7.296;2023-01-16T05:25:46;4.70;99.90
4399;DHT22;2213;49.720;7.296;2023-01-16T05:28:16;4.70;99.90
4399;DHT22;2213;49.720;7.296;2023-01-16T05:30:48;4.70;99.90
4399;DHT22;2213;49.720;7.296;2023-01-16T05:33:17;4.70;99.90
4399;DHT22;2213;49.720;7.296;2023-01-16T05:35:49;4.70;99.90
4399;DHT22;2213;49.720;7.296;2023-01-16T05:38:20;4.60;99.90
4399;DHT22;2213;49.720;7.296;2023-01-16T05:40:50;4.60;99.90
4399;DHT22;2213;49.720;7.296;2023-01-16T05:43:21;4.60;99.90
4399;DHT22;2213;49.720;7.296;2023-01-16T05:45:51;4.60;99.90
4399;DHT22;2213;49.720;7.296;2023-01-16T05:48:21;4.50;99.90
4399;DHT22;2213;49.720;7.296;2023-01-16T05:50:51;4.50;99.90
4399;DHT22;2213;49.720;7.296;2023-01-16T05:53:22;4.50;99.90
4399;DHT22;2213;49.720;7.296;2023-01-16T05:55:56;4.60;99.90
4399;DHT22;2213;49.720;7.296;2023-01-16T05:58:26;4.50;99.90
4399;DHT22;2213;49.720;7.296;2023-01-16T06:00:56;4.60;99.90
4399;DHT22;2213;49.720;7.296;2023-01-16T06:03:26;4.50;99.90
4399;DHT22;2213;49.720;7.296;2023-01-16T06:05:56;4.50;99.90
4399;DHT22;2213;49.720;7.296;2023-01-16T06:08:28;4.60;99.90
4399;DHT22;2213;49.720;7.296;2023-01-16T06:11:01;4.50;99.90
4399;DHT22;2213;49.720;7.296;2023-01-16T06:13:31;4.50;99.90
4399;DHT22;2213;49.720;7.296;2023-01-16T06:16:02;4.40;99.90
4399;DHT22;2213;49.720;7.296;2023-01-16T06:18:31;4.40;99.90
4399;DHT22;2213;49.720;7.296;2023-01-16T06:21:01;4.40;99.90
4399;DHT22;2213;49.720;7.296;2023-01-16T06:23:31;4.50;99.90
4399;DHT22;2213;49.720;7.296;2023-01-16T06:26:02;4.40;99.90
4399;DHT22;2213;49.720;7.296;2023-01-16T06:28:36;4.30;99.90
4399;DHT22;2213;49.720;7.296;2023-01-16T06:31:06;4.30;99.90
4399;DHT22;2213;49.720;7.296;2023-01-16T06:33:36;4.30;99.90
4399;DHT22;2213;49.720;7.296;2023-01-16T06:36:06;4.30;99.90
4399;DHT22;2213;49.720;7.296;2023-01-16T06:38:36;4.20;99.90
4399;DHT22;2213;49.720;7.296;2023-01-16T06:41:07;4.30;99.90
4399;DHT22;2213;49.720;7.296;2023-01-16T06:43:37;4.20;99.90
4399;DHT22;2213;49.720;7.296;2023-01-16T06:46:06;4.30;99.90
4399;DHT22;2213;49.720;7.296;2023-01-16T06:48:36;4.20;99.90
4399;DHT22;2213;49.720;7.296;2023-01-16T06:51:05;4.10;99.90
4399;DHT22;2213;49.720;7.296;2023-01-16T06:53:34;4.10;99.90
4399;DHT22;2213;49.720;7.296;2023-01-16T06:56:06;4.20;99.90
4399;DHT22;2213;49.720;7.296;2023-01-16T06:58:37;4.20;99.90
4399;DHT22;2213;49.720;7.296;2023-01-16T07:01:08;4.20;99.90
4399;DHT22;2213;49.720;7.296;2023-01-16T07:03:37;4.20;99.90
4399;DHT22;2213;49.720;7.296;2023-01-16T07:06:07;4.10;99.90
4399;DHT22;2213;49.720;7.296;2023-01-16T07:08:36;4.20;99.90
4399;DHT22;2213;49.720;7.296;2023-01-16T07:11:07;4.20;99.90
4399;DHT22;2213;49.720;7.296;2023-01-16T07:13:36;4.20;99.90
4399;DHT22;2213;49.720;7.296;2023-01-16T07:16:08;4.30;99.90
4399;DHT22;2213;49.720;7.296;2023-01-16T07:19:11;4.30;99.90
4399;DHT22;2213;49.720;7.296;2023-01-16T07:21:58;4.30;99.90
4399;DHT22;2213;49.720;7.296;2023-01-16T07:24:45;4.30;99.90
4399;DHT22;2213;49.720;7.296;2023-01-16T07:27:16;4.30;99.90
4399;DHT22;2213;49.720;7.296;2023-01-16T07:29:46;4.20;99.90
4399;DHT22;2213;49.720;7.296;2023-01-16T07:32:16;4.10;99.90
4399;DHT22;2213;49.720;7.296;2023-01-16T07:34:46;4.10;99.90
4399;DHT22;2213;49.720;7.296;2023-01-16T07:37:17;4.00;99.90
4399;DHT22;2213;49.720;7.296;2023-01-16T07:39:46;4.00;99.90
4399;DHT22;2213;49.720;7.296;2023-01-16T07:42:17;4.00;99.90
4399;DHT22;2213;49.720;7.296;2023-01-16T07:44:48;3.90;99.90
4399;DHT22;2213;49.720;7.296;2023-01-16T07:47:19;3.90;99.90
4399;DHT22;2213;49.720;7.296;2023-01-16T07:49:49;4.00;99.90
4399;DHT22;2213;49.720;7.296;2023-01-16T07:52:20;3.90;99.90
4399;DHT22;2213;49.720;7.296;2023-01-16T07:54:50;3.90;99.90
4399;DHT22;2213;49.720;7.296;2023-01-16T07:57:21;3.90;99.90
4399;DHT22;2213;49.720;7.296;2023-01-16T07:59:53;3.80;99.90
4399;DHT22;2213;49.720;7.296;2023-01-16T08:02:22;3.80;99.90
4399;DHT22;2213;49.720;7.296;2023-01-16T08:04:51;3.80;99.90
4399;DHT22;2213;49.720;7.296;2023-01-16T08:07:22;3.80;99.90
4399;DHT22;2213;49.720;7.296;2023-01-16T08:09:52;3.80;99.90
4399;DHT22;2213;49.720;7.296;2023-01-16T08:12:23;3.90;99.90
4399;DHT22;2213;49.720;7.296;2023-01-16T08:14:53;3.70;99.90
4399;DHT22;2213;49.720;7.296;2023-01-16T08:17:23;3.80;99.90
4399;DHT22;2213;49.720;7.296;2023-01-16T08:19:53;3.80;99.90
4399;DHT22;2213;49.720;7.296;2023-01-16T08:22:23;3.80;99.90
4399;DHT22;2213;49.720;7.296;2023-01-16T08:24:53;3.80;99.90
4399;DHT22;2213;49.720;7.296;2023-01-16T08:27:26;3.70;99.90
4399;DHT22;2213;49.720;7.296;2023-01-16T08:29:55;3.70;99.90
4399;DHT22;2213;49.720;7.296;2023-01-16T08:32:24;3.80;99.90
4399;DHT22;2213;49.720;7.296;2023-01-16T08:34:54;3.70;99.90
4399;DHT22;2213;49.720;7.296;2023-01-16T08:37:23;3.70;99.90
4399;DHT22;2213;49.720;7.296;2023-01-16T08:39:52;3.70;99.90
4399;DHT22;2213;49.720;7.296;2023-01-16T08:42:24;3.70;99.90
4399;DHT22;2213;49.720;7.296;2023-01-16T08:45:13;3.70;99.90
4399;DHT22;2213;49.720;7.296;2023-01-16T08:47:59;3.70;99.90
4399;DHT22;2213;49.720;7.296;2023-01-16T08:50:48;3.70;99.90
4399;DHT22;2213;49.720;7.296;2023-01-16T08:53:35;3.70;99.90
4399;DHT22;2213;49.720;7.296;2023-01-16T08:56:07;3.70;99.90
4399;DHT22;2213;49.720;7.296;2023-01-16T08:58:40;3.60;99.90
4399;DHT22;2213;49.720;7.296;2023-01-16T09:01:11;3.60;99.90
4399;DHT22;2213;49.720;7.296;2023-01-16T09:03:41;3.70;99.90
4399;DHT22;2213;49.720;7.296;2023-01-16T09:06:12;3.60;99.90
4399;DHT22;2213;49.720;7.296;2023-01-16T09:08:41;3.70;99.90
4399;DHT22;2213;49.720;7.296;2023-01-16T09:11:11;3.60;99.90
4399;DHT22;2213;49.720;7.296;2023-01-16T09:14:00;3.60;99.90
4399;DHT22;2213;49.720;7.296;2023-01-16T09:16:43;3.60;99.90
4399;DHT22;2213;49.720;7.296;2023-01-16T09:19:13;3.60;99.90
4399;DHT22;2213;49.720;7.296;2023-01-16T09:21:42;3.60;99.90
4399;DHT22;2213;49.720;7.296;2023-01-16T09:24:12;3.70;99.90
4399;DHT22;2213;49.720;7.296;2023-01-16T09:26:43;3.70;99.90
4399;DHT22;2213;49.720;7.296;2023-01-16T09:29:14;3.70;99.90
4399;DHT22;2213;49.720;7.296;2023-01-16T09:31:44;3.70;99.90
4399;DHT22;2213;49.720;7.296;2023-01-16T09:34:13;3.70;99.90
4399;DHT22;2213;49.720;7.296;2023-01-16T09:36:43;3.70;99.90
4399;DHT22;2213;49.720;7.296;2023-01-16T09:39:12;3.80;99.90
4399;DHT22;2213;49.720;7.296;2023-01-16T09:41:52;3.80;99.90
4399;DHT22;2213;49.720;7.296;2023-01-16T09:44:52;3.70;99.90
4399;DHT22;2213;49.720;7.296;2023-01-16T09:47:25;3.80;99.90
4399;DHT22;2213;49.720;7.296;2023-01-16T09:50:00;3.90;99.90
4399;DHT22;2213;49.720;7.296;2023-01-16T09:52:35;3.90;99.90
4399;DHT22;2213;49.720;7.296;2023-01-16T09:55:30;3.90;99.90
4399;DHT22;2213;49.720;7.296;2023-01-16T09:58:21;4.00;99.90
4399;DHT22;2213;49.720;7.296;2023-01-16T10:01:10;4.00;99.90
4399;DHT22;2213;49.720;7.296;2023-01-16T10:03:43;4.10;99.90
4399;DHT22;2213;49.720;7.296;2023-01-16T10:06:20;4.10;99.90
4399;DHT22;2213;49.720;7.296;2023-01-16T10:09:00;4.10;99.90
4399;DHT22;2213;49.720;7.296;2023-01-16T10:11:40;4.30;99.90
4399;DHT22;2213;49.720;7.296;2023-01-16T10:17:34;4.30;99.90
4399;DHT22;2213;49.720;7.296;2023-01-16T10:20:21;4.40;99.90
4399;DHT22;2213;49.720;7.296;2023-01-16T10:23:08;4.40;99.90
4399;DHT22;2213;49.720;7.296;2023-01-16T10:25:54;4.50;99.90
4399;DHT22;2213;49.720;7.296;2023-01-16T10:28:42;4.50;99.90
4399;DHT22;2213;49.720;7.296;2023-01-16T10:31:23;4.50;99.90
4399;DHT22;2213;49.720;7.296;2023-01-16T10:34:01;4.60;99.90
4399;DHT22;2213;49.720;7.296;2023-01-16T10:36:41;4.50;99.90
4399;DHT22;2213;49.720;7.296;2023-01-16T10:39:18;4.50;99.90
4399;DHT22;2213;49.720;7.296;2023-01-16T10:41:51;4.50;99.90
4399;DHT22;2213;49.720;7.296;2023-01-16T10:44:54;4.60;99.90
4399;DHT22;2213;49.720;7.296;2023-01-16T10:47:45;4.60;99.90
4399;DHT22;2213;49.720;7.296;2023-01-16T10:50:34;4.60;99.90
4399;DHT22;2213;49.720;7.296;2023-01-16T10:53:05;4.60;99.90
4399;DHT22;2213;49.720;7.296;2023-01-16T10:55:38;4.70;99.90
4399;DHT22;2213;49.720;7.296;2023-01-16T10:58:22;4.70;99.90
4399;DHT22;2213;49.720;7.296;2023-01-16T11:00:58;4.60;99.90
4399;DHT22;2213;49.720;7.296;2023-01-16T11:03:36;4.70;99.90
4399;DHT22;2213;49.720;7.296;2023-01-16T11:06:17;4.80;99.90
4399;DHT22;2213;49.720;7.296;2023-01-16T11:08:51;4.90;99.90
4399;DHT22;2213;49.720;7.296;2023-01-16T11:11:24;4.80;99.90
4399;DHT22;2213;49.720;7.296;2023-01-16T11:14:14;4.90;99.90
4399;DHT22;2213;49.720;7.296;2023-01-16T11:17:21;4.90;99.90
4399;DHT22;2213;49.720;7.296;2023-01-16T11:20:14;4.90;99.90
4399;DHT22;2213;49.720;7.296;2023-01-16T11:22:54;4.90;99.90
4399;DHT22;2213;49.720;7.296;2023-01-16T11:25:27;4.90;99.90
4399;DHT22;2213;49.720;7.296;2023-01-16T11:27:58;4.90;99.90
4399;DHT22;2213;49.720;7.296;2023-01-16T11:30:36;4.90;99.90
4399;DHT22;2213;49.720;7.296;2023-01-16T11:33:14;5.00;99.90
4399;DHT22;2213;49.720;7.296;2023-01-16T11:35:51;5.00;99.90
4399;DHT22;2213;49.720;7.296;2023-01-16T11:38:27;5.00;99.90
4399;DHT22;2213;49.720;7.296;2023-01-16T11:41:02;5.00;99.90
4399;DHT22;2213;49.720;7.296;2023-01-16T11:43:35;5.00;99.90
4399;DHT22;2213;49.720;7.296;2023-01-16T11:46:33;5.00;99.90
4399;DHT22;2213;49.720;7.296;2023-01-16T11:49:15;5.00;99.90
4399;DHT22;2213;49.720;7.296;2023-01-16T11:51:51;5.00;99.90
4399;DHT22;2213;49.720;7.296;2023-01-16T11:54:26;5.10;99.90
4399;DHT22;2213;49.720;7.296;2023-01-16T12:00:21;5.10;99.90
4399;DHT22;2213;49.720;7.296;2023-01-16T12:03:42;5.10;99.90
4399;DHT22;2213;49.720;7.296;2023-01-16T12:06:43;5.10;99.90
4399;DHT22;2213;49.720;7.296;2023-01-16T12:09:36;5.10;99.90
4399;DHT22;2213;49.720;7.296;2023-01-16T12:12:37;5.00;99.90
4399;DHT22;2213;49.720;7.296;2023-01-16T12:15:33;5.00;99.90
4399;DHT22;2213;49.720;7.296;2023-01-16T12:18:16;5.00;99.90
4399;DHT22;2213;49.720;7.296;2023-01-16T12:20:53;5.10;99.90
4399;DHT22;2213;49.720;7.296;2023-01-16T12:27:17;5.10;99.90
4399;DHT22;2213;49.720;7.296;2023-01-16T12:30:21;5.00;99.90
4399;DHT22;2213;49.720;7.296;2023-01-16T12:33:04;5.00;99.90
4399;DHT22;2213;49.720;7.296;2023-01-16T12:35:50;5.00;99.90
4399;DHT22;2213;49.720;7.296;2023-01-16T12:38:28;4.90;99.90
4399;DHT22;2213;49.720;7.296;2023-01-16T12:41:23;5.00;99.90
4399;DHT22;2213;49.720;7.296;2023-01-16T12:44:25;4.90;99.90
4399;DHT22;2213;49.720;7.296;2023-01-16T12:47:17;5.00;99.90
4399;DHT22;2213;49.720;7.296;2023-01-16T12:50:07;5.00;99.90
4399;DHT22;2213;49.720;7.296;2023-01-16T12:53:23;5.00;99.90
4399;DHT22;2213;49.720;7.296;2023-01-16T12:56:38;5.00;99.90
4399;DHT22;2213;49.720;7.296;2023-01-16T12:59:21;4.90;99.90
4399;DHT22;2213;49.720;7.296;2023-01-16T13:01:57;5.00;99.90
4399;DHT22;2213;49.720;7.296;2023-01-16T13:04:39;5.00;99.90
4399;DHT22;2213;49.720;7.296;2023-01-16T13:07:15;5.10;99.90
4399;DHT22;2213;49.720;7.296;2023-01-16T13:09:49;5.10;99.90
4399;DHT22;2213;49.720;7.296;2023-01-16T13:12:45;5.10;99.90
4399;DHT22;2213;49.720;7.296;2023-01-16T13:15:35;5.10;99.90
4399;DHT22;2213;49.720;7.296;2023-01-16T13:18:16;5.10;99.90
4399;DHT22;2213;49.720;7.296;2023-01-16T13:20:52;5.10;99.90
4399;DHT22;2213;49.720;7.296;2023-01-16T13:23:25;5.20;99.90
4399;DHT22;2213;49.720;7.296;2023-01-16T13:26:01;5.10;99.90
4399;DHT22;2213;49.720;7.296;2023-01-16T13:28:39;5.10;99.90
4399;DHT22;2213;49.720;7.296;2023-01-16T13:31:19;5.10;99.90
4399;DHT22;2213;49.720;7.296;2023-01-16T13:33:57;5.20;99.90
4399;DHT22;2213;49.720;7.296;2023-01-16T13:40:08;5.10;99.90
4399;DHT22;2213;49.720;7.296;2023-01-16T13:42:54;5.20;99.90
4399;DHT22;2213;49.720;7.296;2023-01-16T13:45:50;5.20;99.90
4399;DHT22;2213;49.720;7.296;2023-01-16T13:48:27;5.20;99.90
4399;DHT22;2213;49.720;7.296;2023-01-16T13:50:59;5.30;99.90
4399;DHT22;2213;49.720;7.296;2023-01-16T13:53:31;5.20;99.90
4399;DHT22;2213;49.720;7.296;2023-01-16T13:56:06;5.20;99.90
4399;DHT22;2213;49.720;7.296;2023-01-16T13:58:40;5.20;99.90
4399;DHT22;2213;49.720;7.296;2023-01-16T14:01:32;5.20;99.90
4399;DHT22;2213;49.720;7.296;2023-01-16T14:04:28;5.30;99.90
4399;DHT22;2213;49.720;7.296;2023-01-16T14:07:01;5.30;99.90
4399;DHT22;2213;49.720;7.296;2023-01-16T14:10:14;5.30;99.90
4399;DHT22;2213;49.720;7.296;2023-01-16T14:13:01;5.30;99.90
4399;DHT22;2213;49.720;7.296;2023-01-16T14:15:49;5.20;99.90
4399;DHT22;2213;49.720;7.296;2023-01-16T14:18:42;5.20;99.90
4399;DHT22;2213;49.720;7.296;2023-01-16T14:21:42;5.20;99.90
4399;DHT22;2213;49.720;7.296;2023-01-16T14:24:50;5.20;99.90
4399;DHT22;2213;49.720;7.296;2023-01-16T14:27:25;5.20;99.90
4399;DHT22;2213;49.720;7.296;2023-01-16T14:30:02;5.10;99.90
4399;DHT22;2213;49.720;7.296;2023-01-16T14:32:35;5.20;99.90
4399;DHT22;2213;49.720;7.296;2023-01-16T14:35:16;5.20;99.90
4399;DHT22;2213;49.720;7.296;2023-01-16T14:37:59;5.20;99.90
4399;DHT22;2213;49.720;7.296;2023-01-16T14:40:35;5.10;99.90
4399;DHT22;2213;49.720;7.296;2023-01-16T14:43:28;5.10;99.90
4399;DHT22;2213;49.720;7.296;2023-01-16T14:46:32;5.20;99.90
4399;DHT22;2213;49.720;7.296;2023-01-16T14:49:38;5.10;99.90
4399;DHT22;2213;49.720;7.296;2023-01-16T14:52:44;5.10;99.90
4399;DHT22;2213;49.720;7.296;2023-01-16T14:55:46;5.00;99.90
4399;DHT22;2213;49.720;7.296;2023-01-16T14:58:33;5.00;99.90
4399;DHT22;2213;49.720;7.296;2023-01-16T15:01:16;5.10;99.90
4399;DHT22;2213;49.720;7.296;2023-01-16T15:04:12;5.10;99.90
4399;DHT22;2213;49.720;7.296;2023-01-16T15:06:46;5.00;99.90
4399;DHT22;2213;49.720;7.296;2023-01-16T15:09:21;5.00;99.90
4399;DHT22;2213;49.720;7.296;2023-01-16T15:11:56;4.90;99.90
4399;DHT22;2213;49.720;7.296;2023-01-16T15:14:27;4.80;99.90
4399;DHT22;2213;49.720;7.296;2023-01-16T15:17:23;4.80;99.90
4399;DHT22;2213;49.720;7.296;2023-01-16T15:20:23;4.80;99.90
4399;DHT22;2213;49.720;7.296;2023-01-16T15:23:21;4.70;99.90
4399;DHT22;2213;49.720;7.296;2023-01-16T15:26:21;4.70;99.90
4399;DHT22;2213;49.720;7.296;2023-01-16T15:29:41;4.70;99.90
4399;DHT22;2213;49.720;7.296;2023-01-16T15:32:20;4.70;99.90
4399;DHT22;2213;49.720;7.296;2023-01-16T15:35:04;4.70;99.90
4399;DHT22;2213;49.720;7.296;2023-01-16T15:37:48;4.70;99.90
4399;DHT22;2213;49.720;7.296;2023-01-16T15:40:24;4.60;99.90
4399;DHT22;2213;49.720;7.296;2023-01-16T15:42:58;4.60;99.90
4399;DHT22;2213;49.720;7.296;2023-01-16T15:45:50;4.60;99.90
4399;DHT22;2213;49.720;7.296;2023-01-16T15:48:50;4.60;99.90
4399;DHT22;2213;49.720;7.296;2023-01-16T15:51:49;4.50;99.90
4399;DHT22;2213;49.720;7.296;2023-01-16T15:54:19;4.30;99.90
4399;DHT22;2213;49.720;7.296;2023-01-16T15:56:48;4.30;99.90
4399;DHT22;2213;49.720;7.296;2023-01-16T15:59:25;4.30;99.90
4399;DHT22;2213;49.720;7.296;2023-01-16T16:02:13;4.30;99.90
4399;DHT22;2213;49.720;7.296;2023-01-16T16:04:48;4.40;99.90
4399;DHT22;2213;49.720;7.296;2023-01-16T16:07:20;4.30;99.90
4399;DHT22;2213;49.720;7.296;2023-01-16T16:09:54;4.30;99.90
4399;DHT22;2213;49.720;7.296;2023-01-16T16:12:29;4.30;99.90
4399;DHT22;2213;49.720;7.296;2023-01-16T16:15:26;4.30;99.90
4399;DHT22;2213;49.720;7.296;2023-01-16T16:18:15;4.20;99.90
4399;DHT22;2213;49.720;7.296;2023-01-16T16:20:48;4.30;99.90
4399;DHT22;2213;49.720;7.296;2023-01-16T16:23:21;4.30;99.90
4399;DHT22;2213;49.720;7.296;2023-01-16T16:25:54;4.20;99.90
4399;DHT22;2213;49.720;7.296;2023-01-16T16:28:27;4.30;99.90
4399;DHT22;2213;49.720;7.296;2023-01-16T16:31:06;4.30;99.90
4399;DHT22;2213;49.720;7.296;2023-01-16T16:33:42;4.20;99.90
4399;DHT22;2213;49.720;7.296;2023-01-16T16:36:22;4.20;99.90
4399;DHT22;2213;49.720;7.296;2023-01-16T16:38:53;4.20;99.90
4399;DHT22;2213;49.720;7.296;2023-01-16T16:44:39;4.10;99.90
4399;DHT22;2213;49.720;7.296;2023-01-16T16:47:22;4.10;99.90
4399;DHT22;2213;49.720;7.296;2023-01-16T16:50:30;4.10;99.90
4399;DHT22;2213;49.720;7.296;2023-01-16T16:53:04;4.20;99.90
4399;DHT22;2213;49.720;7.296;2023-01-16T16:55:34;4.20;99.90
4399;DHT22;2213;49.720;7.296;2023-01-16T16:58:11;4.20;99.90
4399;DHT22;2213;49.720;7.296;2023-01-16T17:00:44;4.20;99.90
4399;DHT22;2213;49.720;7.296;2023-01-16T17:03:18;4.20;99.90
4399;DHT22;2213;49.720;7.296;2023-01-16T17:05:50;4.20;99.90
4399;DHT22;2213;49.720;7.296;2023-01-16T17:08:23;4.30;99.90
4399;DHT22;2213;49.720;7.296;2023-01-16T17:10:56;4.20;99.90
4399;DHT22;2213;49.720;7.296;2023-01-16T17:13:25;4.20;99.90
4399;DHT22;2213;49.720;7.296;2023-01-16T17:15:55;4.20;99.90
4399;DHT22;2213;49.720;7.296;2023-01-16T17:18:28;4.30;99.90
4399;DHT22;2213;49.720;7.296;2023-01-16T17:20:58;4.30;99.90
4399;DHT22;2213;49.720;7.296;2023-01-16T17:23:27;4.30;99.90
4399;DHT22;2213;49.720;7.296;2023-01-16T17:25:56;4.40;99.90
4399;DHT22;2213;49.720;7.296;2023-01-16T17:28:26;4.40;99.90
4399;DHT22;2213;49.720;7.296;2023-01-16T17:30:55;4.40;99.90
4399;DHT22;2213;49.720;7.296;2023-01-16T17:33:27;4.40;99.90
4399;DHT22;2213;49.720;7.296;2023-01-16T17:35:57;4.20;99.90
4399;DHT22;2213;49.720;7.296;2023-01-16T17:38:37;4.40;99.90
4399;DHT22;2213;49.720;7.296;2023-01-16T17:41:15;4.40;99.90
4399;DHT22;2213;49.720;7.296;2023-01-16T17:43:49;4.40;99.90
4399;DHT22;2213;49.720;7.296;2023-01-16T17:46:36;4.40;99.90